sensor_id;sensor_type;location;lat;lon;timestamp;pressure;altitude;pressure_sealevel;temperature
55602;BMP280;59921;51.332;12.410;2022-09-09T00:01:19;99805.25;;;24.09
55602;BMP280;59921;51.332;12.410;2022-09-09T00:06:43;99805.72;;;24.07
55602;BMP280;59921;51.332;12.410;2022-09-09T00:11:49;99807.72;;;24.07
55602;BMP280;59921;51.332;12.410;2022-09-09T00:17:12;99811.00;;;24.05
55602;BMP280;59921;51.332;12.410;2022-09-09T00:22:21;99820.00;;;24.06
55602;BMP280;59921;51.332;12.410;2022-09-09T00:29:54;99815.78;;;24.05
55602;BMP280;59921;51.332;12.410;2022-09-09T00:32:22;99809.50;;;24.04
55602;BMP280;59921;51.332;12.410;2022-09-09T00:34:52;99806.75;;;24.04
55602;BMP280;59921;51.332;12.410;2022-09-09T00:37:20;99808.75;;;24.04
55602;BMP280;59921;51.332;12.410;2022-09-09T00:39:48;99812.25;;;24.04
55602;BMP280;59921;51.332;12.410;2022-09-09T00:42:30;99804.00;;;24.04
55602;BMP280;59921;51.332;12.410;2022-09-09T00:45:09;99806.00;;;24.04
55602;BMP280;59921;51.332;12.410;2022-09-09T00:47:46;99805.25;;;24.03
55602;BMP280;59921;51.332;12.410;2022-09-09T00:58:21;99805.47;;;24.00
55602;BMP280;59921;51.332;12.410;2022-09-09T01:00:52;99811.75;;;24.00
55602;BMP280;59921;51.332;12.410;2022-09-09T01:03:38;99817.25;;;24.00
55602;BMP280;59921;51.332;12.410;2022-09-09T01:11:22;99810.25;;;23.99
55602;BMP280;59921;51.332;12.410;2022-09-09T01:13:58;99815.75;;;23.99
55602;BMP280;59921;51.332;12.410;2022-09-09T01:16:28;99814.25;;;23.98
55602;BMP280;59921;51.332;12.410;2022-09-09T01:18:56;99811.50;;;23.98
55602;BMP280;59921;51.332;12.410;2022-09-09T01:21:41;99808.72;;;23.98
55602;BMP280;59921;51.332;12.410;2022-09-09T01:24:38;99803.22;;;23.98
55602;BMP280;59921;51.332;12.410;2022-09-09T01:27:06;99812.75;;;23.97
55602;BMP280;59921;51.332;12.410;2022-09-09T01:29:33;99812.00;;;23.97
55602;BMP280;59921;51.332;12.410;2022-09-09T01:32:36;99814.00;;;23.96
55602;BMP280;59921;51.332;12.410;2022-09-09T01:34:50;99800.22;;;23.96
55602;BMP280;59921;51.332;12.410;2022-09-09T01:37:16;99800.22;;;23.96
55602;BMP280;59921;51.332;12.410;2022-09-09T01:39:43;99809.25;;;23.97
55602;BMP280;59921;51.332;12.410;2022-09-09T01:42:12;99799.47;;;23.96
55602;BMP280;59921;51.332;12.410;2022-09-09T01:44:38;99799.47;;;23.96
55602;BMP280;59921;51.332;12.410;2022-09-09T01:47:05;99805.72;;;23.96
55602;BMP280;59921;51.332;12.410;2022-09-09T01:49:31;99806.22;;;23.95
55602;BMP280;59921;51.332;12.410;2022-09-09T01:51:58;99798.72;;;23.95
55602;BMP280;59921;51.332;12.410;2022-09-09T01:54:28;99798.72;;;23.95
55602;BMP280;59921;51.332;12.410;2022-09-09T01:57:01;99804.22;;;23.95
55602;BMP280;59921;51.332;12.410;2022-09-09T02:05:20;99793.72;;;23.94
55602;BMP280;59921;51.332;12.410;2022-09-09T02:07:58;99797.72;;;23.93
55602;BMP280;59921;51.332;12.410;2022-09-09T02:10:56;99803.22;;;23.93
55602;BMP280;59921;51.332;12.410;2022-09-09T02:13:24;99802.50;;;23.92
55602;BMP280;59921;51.332;12.410;2022-09-09T02:21:22;99803.72;;;23.91
55602;BMP280;59921;51.332;12.410;2022-09-09T02:23:49;99803.00;;;23.91
55602;BMP280;59921;51.332;12.410;2022-09-09T02:26:19;99811.25;;;23.91
55602;BMP280;59921;51.332;12.410;2022-09-09T02:28:50;99816.75;;;23.91
55602;BMP280;59921;51.332;12.410;2022-09-09T02:31:18;99812.50;;;23.90
55602;BMP280;59921;51.332;12.410;2022-09-09T02:33:50;99821.50;;;23.90
55602;BMP280;59921;51.332;12.410;2022-09-09T02:36:17;99813.25;;;23.90
55602;BMP280;59921;51.332;12.410;2022-09-09T02:38:46;99814.00;;;23.91
55602;BMP280;59921;51.332;12.410;2022-09-09T02:41:35;99808.97;;;23.89
55602;BMP280;59921;51.332;12.410;2022-09-09T02:44:05;99807.00;;;23.90
55602;BMP280;59921;51.332;12.410;2022-09-09T02:49:48;99803.22;;;23.87
55602;BMP280;59921;51.332;12.410;2022-09-09T02:52:27;99811.50;;;23.87
55602;BMP280;59921;51.332;12.410;2022-09-09T02:55:02;99807.97;;;23.87
55602;BMP280;59921;51.332;12.410;2022-09-09T02:57:30;99803.75;;;23.86
55602;BMP280;59921;51.332;12.410;2022-09-09T02:59:58;99806.50;;;23.86
55602;BMP280;59921;51.332;12.410;2022-09-09T03:02:24;99814.00;;;23.85
55602;BMP280;59921;51.332;12.410;2022-09-09T03:04:49;99805.72;;;23.85
55602;BMP280;59921;51.332;12.410;2022-09-09T03:07:18;99818.22;;;23.86
55602;BMP280;59921;51.332;12.410;2022-09-09T03:09:44;99811.25;;;23.85
55602;BMP280;59921;51.332;12.410;2022-09-09T03:12:10;99817.97;;;23.84
55602;BMP280;59921;51.332;12.410;2022-09-09T03:14:37;99815.22;;;23.84
55602;BMP280;59921;51.332;12.410;2022-09-09T03:17:04;99815.22;;;23.84
55602;BMP280;59921;51.332;12.410;2022-09-09T03:19:30;99811.75;;;23.84
55602;BMP280;59921;51.332;12.410;2022-09-09T03:21:59;99817.25;;;23.84
55602;BMP280;59921;51.332;12.410;2022-09-09T03:24:25;99814.50;;;23.84
55602;BMP280;59921;51.332;12.410;2022-09-09T03:26:51;99813.75;;;23.83
55602;BMP280;59921;51.332;12.410;2022-09-09T03:29:16;99808.25;;;23.83
55602;BMP280;59921;51.332;12.410;2022-09-09T03:31:43;99814.22;;;23.82
55602;BMP280;59921;51.332;12.410;2022-09-09T03:34:09;99814.22;;;23.82
55602;BMP280;59921;51.332;12.410;2022-09-09T03:36:35;99809.47;;;23.82
55602;BMP280;59921;51.332;12.410;2022-09-09T03:39:02;99810.72;;;23.81
55602;BMP280;59921;51.332;12.410;2022-09-09T03:41:29;99805.22;;;23.81
55602;BMP280;59921;51.332;12.410;2022-09-09T03:43:54;99798.22;;;23.80
55602;BMP280;59921;51.332;12.410;2022-09-09T03:46:22;99796.19;;;23.81
55602;BMP280;59921;51.332;12.410;2022-09-09T03:48:48;99797.47;;;23.80
55602;BMP280;59921;51.332;12.410;2022-09-09T03:51:13;99807.19;;;23.81
55602;BMP280;59921;51.332;12.410;2022-09-09T03:53:40;99805.72;;;23.80
55602;BMP280;59921;51.332;12.410;2022-09-09T03:56:06;99802.22;;;23.79
55602;BMP280;59921;51.332;12.410;2022-09-09T03:58:33;99798.72;;;23.79
55602;BMP280;59921;51.332;12.410;2022-09-09T04:01:02;99799.47;;;23.79
55602;BMP280;59921;51.332;12.410;2022-09-09T04:03:28;99794.47;;;23.78
55602;BMP280;59921;51.332;12.410;2022-09-09T04:05:56;99795.97;;;23.79
55602;BMP280;59921;51.332;12.410;2022-09-09T04:08:22;99808.22;;;23.78
55602;BMP280;59921;51.332;12.410;2022-09-09T04:10:50;99812.25;;;23.77
55602;BMP280;59921;51.332;12.410;2022-09-09T04:13:17;99808.97;;;23.78
55602;BMP280;59921;51.332;12.410;2022-09-09T04:15:44;99801.22;;;23.77
55602;BMP280;59921;51.332;12.410;2022-09-09T04:18:10;99807.47;;;23.77
55602;BMP280;59921;51.332;12.410;2022-09-09T04:20:37;99804.47;;;23.75
55602;BMP280;59921;51.332;12.410;2022-09-09T04:23:03;99812.72;;;23.75
55602;BMP280;59921;51.332;12.410;2022-09-09T04:25:29;99813.94;;;23.74
55602;BMP280;59921;51.332;12.410;2022-09-09T04:27:56;99812.72;;;23.75
55602;BMP280;59921;51.332;12.410;2022-09-09T04:30:23;99809.22;;;23.75
55602;BMP280;59921;51.332;12.410;2022-09-09T04:32:48;99815.47;;;23.75
55602;BMP280;59921;51.332;12.410;2022-09-09T04:35:14;99817.47;;;23.75
55602;BMP280;59921;51.332;12.410;2022-09-09T04:37:39;99817.97;;;23.73
55602;BMP280;59921;51.332;12.410;2022-09-09T04:40:07;99813.94;;;23.74
55602;BMP280;59921;51.332;12.410;2022-09-09T04:42:38;99817.97;;;23.73
55602;BMP280;59921;51.332;12.410;2022-09-09T04:45:06;99817.22;;;23.73
55602;BMP280;59921;51.332;12.410;2022-09-09T04:47:32;99817.22;;;23.73
55602;BMP280;59921;51.332;12.410;2022-09-09T04:49:58;99814.47;;;23.73
55602;BMP280;59921;51.332;12.410;2022-09-09T04:52:23;99818.47;;;23.72
55602;BMP280;59921;51.332;12.410;2022-09-09T04:54:49;99812.97;;;23.72
55602;BMP280;59921;51.332;12.410;2022-09-09T04:57:14;99819.22;;;23.72
55602;BMP280;59921;51.332;12.410;2022-09-09T04:59:40;99814.97;;;23.71
55602;BMP280;59921;51.332;12.410;2022-09-09T05:02:06;99817.72;;;23.71
55602;BMP280;59921;51.332;12.410;2022-09-09T05:04:31;99825.22;;;23.71
55602;BMP280;59921;51.332;12.410;2022-09-09T05:06:58;99819.47;;;23.69
55602;BMP280;59921;51.332;12.410;2022-09-09T05:09:24;99825.72;;;23.69
55602;BMP280;59921;51.332;12.410;2022-09-09T05:11:49;99824.22;;;23.68
55602;BMP280;59921;51.332;12.410;2022-09-09T05:14:15;99826.97;;;23.68
55602;BMP280;59921;51.332;12.410;2022-09-09T05:16:41;99835.97;;;23.69
55602;BMP280;59921;51.332;12.410;2022-09-09T05:19:07;99829.72;;;23.68
55602;BMP280;59921;51.332;12.410;2022-09-09T05:21:33;99826.19;;;23.67
55602;BMP280;59921;51.332;12.410;2022-09-09T05:23:59;99830.94;;;23.67
55602;BMP280;59921;51.332;12.410;2022-09-09T05:26:26;99834.47;;;23.67
55602;BMP280;59921;51.332;12.410;2022-09-09T05:28:52;99833.69;;;23.67
55602;BMP280;59921;51.332;12.410;2022-09-09T05:31:18;99843.94;;;23.66
55602;BMP280;59921;51.332;12.410;2022-09-09T05:33:45;99841.94;;;23.67
55602;BMP280;59921;51.332;12.410;2022-09-09T05:36:13;99836.22;;;23.65
55602;BMP280;59921;51.332;12.410;2022-09-09T05:38:40;99839.72;;;23.65
55602;BMP280;59921;51.332;12.410;2022-09-09T05:41:06;99833.47;;;23.65
55602;BMP280;59921;51.332;12.410;2022-09-09T05:43:32;99838.22;;;23.64
55602;BMP280;59921;51.332;12.410;2022-09-09T05:46:02;99839.72;;;23.65
55602;BMP280;59921;51.332;12.410;2022-09-09T05:48:32;99833.47;;;23.65
55602;BMP280;59921;51.332;12.410;2022-09-09T05:51:00;99836.22;;;23.65
55602;BMP280;59921;51.332;12.410;2022-09-09T05:53:27;99837.47;;;23.64
55602;BMP280;59921;51.332;12.410;2022-09-09T05:56:03;99837.22;;;23.62
55602;BMP280;59921;51.332;12.410;2022-09-09T05:58:33;99840.22;;;23.64
55602;BMP280;59921;51.332;12.410;2022-09-09T06:01:07;99842.72;;;23.62
55602;BMP280;59921;51.332;12.410;2022-09-09T06:03:37;99844.19;;;23.63
55602;BMP280;59921;51.332;12.410;2022-09-09T06:06:06;99837.22;;;23.62
55602;BMP280;59921;51.332;12.410;2022-09-09T06:08:36;99845.47;;;23.62
55602;BMP280;59921;51.332;12.410;2022-09-09T06:11:06;99840.69;;;23.62
55602;BMP280;59921;51.332;12.410;2022-09-09T06:13:33;99850.97;;;23.62
55602;BMP280;59921;51.332;12.410;2022-09-09T06:15:58;99847.94;;;23.60
55602;BMP280;59921;51.332;12.410;2022-09-09T06:18:25;99850.22;;;23.61
55602;BMP280;59921;51.332;12.410;2022-09-09T06:21:02;99848.69;;;23.60
55602;BMP280;59921;51.332;12.410;2022-09-09T06:23:35;99841.19;;;23.61
55602;BMP280;59921;51.332;12.410;2022-09-09T06:26:15;99843.19;;;23.60
55602;BMP280;59921;51.332;12.410;2022-09-09T06:28:44;99842.44;;;23.60
55602;BMP280;59921;51.332;12.410;2022-09-09T06:31:12;99849.19;;;23.59
55602;BMP280;59921;51.332;12.410;2022-09-09T06:33:41;99839.69;;;23.60
55602;BMP280;59921;51.332;12.410;2022-09-09T06:36:12;99841.69;;;23.59
55602;BMP280;59921;51.332;12.410;2022-09-09T06:38:38;99846.44;;;23.59
55602;BMP280;59921;51.332;12.410;2022-09-09T06:41:04;99849.94;;;23.59
55602;BMP280;59921;51.332;12.410;2022-09-09T06:43:31;99851.19;;;23.58
55602;BMP280;59921;51.332;12.410;2022-09-09T06:48:23;99851.19;;;23.58
55602;BMP280;59921;51.332;12.410;2022-09-09T06:50:48;99847.72;;;23.58
55602;BMP280;59921;51.332;12.410;2022-09-09T06:53:17;99848.94;;;23.57
55602;BMP280;59921;51.332;12.410;2022-09-09T06:55:45;99845.44;;;23.56
55602;BMP280;59921;51.332;12.410;2022-09-09T06:58:10;99855.22;;;23.57
55602;BMP280;59921;51.332;12.410;2022-09-09T07:00:36;99850.94;;;23.56
55602;BMP280;59921;51.332;12.410;2022-09-09T07:03:04;99854.44;;;23.57
55602;BMP280;59921;51.332;12.410;2022-09-09T07:05:31;99853.69;;;23.56
55602;BMP280;59921;51.332;12.410;2022-09-09T07:07:57;99860.72;;;23.57
55602;BMP280;59921;51.332;12.410;2022-09-09T07:10:23;99859.94;;;23.57
55602;BMP280;59921;51.332;12.410;2022-09-09T07:12:52;99860.72;;;23.57
55602;BMP280;59921;51.332;12.410;2022-09-09T07:15:21;99860.72;;;23.57
55602;BMP280;59921;51.332;12.410;2022-09-09T07:17:48;99856.44;;;23.56
55602;BMP280;59921;51.332;12.410;2022-09-09T07:20:14;99855.22;;;23.57
55602;BMP280;59921;51.332;12.410;2022-09-09T07:22:41;99849.44;;;23.55
55602;BMP280;59921;51.332;12.410;2022-09-09T07:25:07;99852.47;;;23.57
55602;BMP280;59921;51.332;12.410;2022-09-09T07:27:33;99854.44;;;23.57
55602;BMP280;59921;51.332;12.410;2022-09-09T07:29:58;99854.94;;;23.55
55602;BMP280;59921;51.332;12.410;2022-09-09T07:32:24;99852.47;;;23.57
55602;BMP280;59921;51.332;12.410;2022-09-09T07:34:51;99850.19;;;23.56
55602;BMP280;59921;51.332;12.410;2022-09-09T07:37:16;99853.69;;;23.56
55602;BMP280;59921;51.332;12.410;2022-09-09T07:39:43;99855.69;;;23.56
55602;BMP280;59921;51.332;12.410;2022-09-09T07:42:09;99866.69;;;23.56
55602;BMP280;59921;51.332;12.410;2022-09-09T07:44:37;99849.94;;;23.54
55602;BMP280;59921;51.332;12.410;2022-09-09T07:47:05;99858.44;;;23.56
55602;BMP280;59921;51.332;12.410;2022-09-09T07:49:32;99858.44;;;23.56
55602;BMP280;59921;51.332;12.410;2022-09-09T07:51:58;99864.44;;;23.54
55602;BMP280;59921;51.332;12.410;2022-09-09T07:54:24;99869.19;;;23.54
55602;BMP280;59921;51.332;12.410;2022-09-09T07:56:51;99868.69;;;23.55
55602;BMP280;59921;51.332;12.410;2022-09-09T07:59:18;99868.69;;;23.55
55602;BMP280;59921;51.332;12.410;2022-09-09T08:01:46;99877.69;;;23.56
55602;BMP280;59921;51.332;12.410;2022-09-09T08:04:17;99885.94;;;23.56
55602;BMP280;59921;51.332;12.410;2022-09-09T08:06:46;99888.69;;;23.56
55602;BMP280;59921;51.332;12.410;2022-09-09T08:09:12;99880.19;;;23.54
55602;BMP280;59921;51.332;12.410;2022-09-09T08:11:39;99871.44;;;23.55
55602;BMP280;59921;51.332;12.410;2022-09-09T08:14:06;99883.19;;;23.56
55602;BMP280;59921;51.332;12.410;2022-09-09T08:16:38;99885.19;;;23.55
55602;BMP280;59921;51.332;12.410;2022-09-09T08:19:04;99880.94;;;23.54
55602;BMP280;59921;51.332;12.410;2022-09-09T08:21:32;99883.19;;;23.56
55602;BMP280;59921;51.332;12.410;2022-09-09T08:26:30;99880.19;;;23.54
55602;BMP280;59921;51.332;12.410;2022-09-09T08:28:57;99879.44;;;23.53
55602;BMP280;59921;51.332;12.410;2022-09-09T08:31:26;99880.19;;;23.54
55602;BMP280;59921;51.332;12.410;2022-09-09T08:33:54;99874.69;;;23.54
55602;BMP280;59921;51.332;12.410;2022-09-09T08:36:23;99880.19;;;23.54
55602;BMP280;59921;51.332;12.410;2022-09-09T08:38:51;99885.69;;;23.54
55602;BMP280;59921;51.332;12.410;2022-09-09T08:44:22;99876.69;;;23.53
55602;BMP280;59921;51.332;12.410;2022-09-09T08:58:22;99892.44;;;23.53
55602;BMP280;59921;51.332;12.410;2022-09-09T09:11:21;99886.94;;;23.53
55602;BMP280;59921;51.332;12.410;2022-09-09T09:13:53;99877.16;;;23.52
55602;BMP280;59921;51.332;12.410;2022-09-09T09:16:27;99888.91;;;23.52
55602;BMP280;59921;51.332;12.410;2022-09-09T09:18:54;99888.16;;;23.52
55602;BMP280;59921;51.332;12.410;2022-09-09T09:21:42;99884.94;;;23.53
55602;BMP280;59921;51.332;12.410;2022-09-09T09:24:18;99886.16;;;23.52
55602;BMP280;59921;51.332;12.410;2022-09-09T09:26:44;99888.16;;;23.52
55602;BMP280;59921;51.332;12.410;2022-09-09T09:29:13;99883.41;;;23.52
55602;BMP280;59921;51.332;12.410;2022-09-09T09:31:47;99875.94;;;23.53
55602;BMP280;59921;51.332;12.410;2022-09-09T09:34:14;99878.69;;;23.53
55602;BMP280;59921;51.332;12.410;2022-09-09T09:36:46;99874.69;;;23.54
55602;BMP280;59921;51.332;12.410;2022-09-09T09:39:27;99877.44;;;23.54
55602;BMP280;59921;51.332;12.410;2022-09-09T09:41:53;99871.66;;;23.52
55602;BMP280;59921;51.332;12.410;2022-09-09T09:44:31;99880.19;;;23.54
55602;BMP280;59921;51.332;12.410;2022-09-09T09:47:12;99879.44;;;23.53
55602;BMP280;59921;51.332;12.410;2022-09-09T09:49:39;99882.94;;;23.54
55602;BMP280;59921;51.332;12.410;2022-09-09T09:52:06;99881.44;;;23.53
55602;BMP280;59921;51.332;12.410;2022-09-09T09:54:37;99886.16;;;23.52
55602;BMP280;59921;51.332;12.410;2022-09-09T09:57:14;99880.94;;;23.54
55602;BMP280;59921;51.332;12.410;2022-09-09T10:02:24;99876.69;;;23.53
55602;BMP280;59921;51.332;12.410;2022-09-09T10:07:21;99875.44;;;23.54
55602;BMP280;59921;51.332;12.410;2022-09-09T10:09:55;99871.66;;;23.52
55602;BMP280;59921;51.332;12.410;2022-09-09T10:28:58;99890.44;;;23.53
55602;BMP280;59921;51.332;12.410;2022-09-09T10:32:32;99876.69;;;23.53
55602;BMP280;59921;51.332;12.410;2022-09-09T10:34:58;99873.94;;;23.53
55602;BMP280;59921;51.332;12.410;2022-09-09T10:40:22;99878.19;;;23.54
55602;BMP280;59921;51.332;12.410;2022-09-09T10:42:54;99871.94;;;23.54
55602;BMP280;59921;51.332;12.410;2022-09-09T10:45:32;99869.19;;;23.54
55602;BMP280;59921;51.332;12.410;2022-09-09T10:54:12;99864.69;;;23.56
55602;BMP280;59921;51.332;12.410;2022-09-09T10:56:33;99864.69;;;23.56
55602;BMP280;59921;51.332;12.410;2022-09-09T11:01:36;99856.44;;;23.56
55602;BMP280;59921;51.332;12.410;2022-09-09T11:04:17;99860.72;;;23.57
55602;BMP280;59921;51.332;12.410;2022-09-09T11:06:49;99857.97;;;23.57
55602;BMP280;59921;51.332;12.410;2022-09-09T11:09:21;99865.47;;;23.57
55602;BMP280;59921;51.332;12.410;2022-09-09T11:11:57;99858.72;;;23.58
55602;BMP280;59921;51.332;12.410;2022-09-09T11:14:34;99866.97;;;23.58
55602;BMP280;59921;51.332;12.410;2022-09-09T11:17:25;99860.19;;;23.59
55602;BMP280;59921;51.332;12.410;2022-09-09T11:19:52;99853.94;;;23.58
55602;BMP280;59921;51.332;12.410;2022-09-09T11:25:10;99846.44;;;23.59
55602;BMP280;59921;51.332;12.410;2022-09-09T11:36:01;99831.44;;;23.60
55602;BMP280;59921;51.332;12.410;2022-09-09T11:38:45;99827.91;;;23.59
55602;BMP280;59921;51.332;12.410;2022-09-09T11:41:13;99818.44;;;23.60
55602;BMP280;59921;51.332;12.410;2022-09-09T11:43:47;99827.91;;;23.59
55602;BMP280;59921;51.332;12.410;2022-09-09T11:46:14;99828.19;;;23.61
55602;BMP280;59921;51.332;12.410;2022-09-09T11:48:43;99828.97;;;23.62
55602;BMP280;59921;51.332;12.410;2022-09-09T11:59:18;99834.94;;;23.60
55602;BMP280;59921;51.332;12.410;2022-09-09T12:01:48;99839.22;;;23.61
55602;BMP280;59921;51.332;12.410;2022-09-09T12:06:55;99826.22;;;23.62
55602;BMP280;59921;51.332;12.410;2022-09-09T12:09:24;99832.44;;;23.62
55602;BMP280;59921;51.332;12.410;2022-09-09T12:11:51;99827.69;;;23.63
55602;BMP280;59921;51.332;12.410;2022-09-09T12:17:26;99823.47;;;23.62
55602;BMP280;59921;51.332;12.410;2022-09-09T12:23:30;99822.94;;;23.63
55602;BMP280;59921;51.332;12.410;2022-09-09T12:28:19;99818.69;;;23.62
55602;BMP280;59921;51.332;12.410;2022-09-09T12:30:51;99813.19;;;23.62
55602;BMP280;59921;51.332;12.410;2022-09-09T12:33:20;99811.94;;;23.63
55602;BMP280;59921;51.332;12.410;2022-09-09T12:35:57;99813.94;;;23.63
55602;BMP280;59921;51.332;12.410;2022-09-09T12:38:32;99816.22;;;23.64
55602;BMP280;59921;51.332;12.410;2022-09-09T12:40:59;99810.72;;;23.64
55602;BMP280;59921;51.332;12.410;2022-09-09T12:43:27;99807.19;;;23.64
55602;BMP280;59921;51.332;12.410;2022-09-09T12:46:10;99805.22;;;23.64
55602;BMP280;59921;51.332;12.410;2022-09-09T12:48:40;99807.19;;;23.64
55602;BMP280;59921;51.332;12.410;2022-09-09T12:51:19;99803.94;;;23.65
55602;BMP280;59921;51.332;12.410;2022-09-09T12:53:46;99793.66;;;23.66
55602;BMP280;59921;51.332;12.410;2022-09-09T12:56:21;99796.41;;;23.66
55602;BMP280;59921;51.332;12.410;2022-09-09T12:58:51;99794.44;;;23.66
55602;BMP280;59921;51.332;12.410;2022-09-09T13:01:28;99789.69;;;23.67
55602;BMP280;59921;51.332;12.410;2022-09-09T13:03:55;99790.91;;;23.66
55602;BMP280;59921;51.332;12.410;2022-09-09T13:06:31;99795.94;;;23.67
55602;BMP280;59921;51.332;12.410;2022-09-09T13:08:59;99789.69;;;23.67
55602;BMP280;59921;51.332;12.410;2022-09-09T13:11:41;99797.44;;;23.69
55602;BMP280;59921;51.332;12.410;2022-09-09T13:14:19;99782.19;;;23.67
55602;BMP280;59921;51.332;12.410;2022-09-09T13:16:59;99788.44;;;23.68
55602;BMP280;59921;51.332;12.410;2022-09-09T13:19:25;99782.94;;;23.68
55602;BMP280;59921;51.332;12.410;2022-09-09T13:21:54;99785.69;;;23.68
55602;BMP280;59921;51.332;12.410;2022-09-09T13:24:32;99782.19;;;23.67
55602;BMP280;59921;51.332;12.410;2022-09-09T13:27:00;99773.94;;;23.67
55602;BMP280;59921;51.332;12.410;2022-09-09T13:29:31;99771.19;;;23.67
55602;BMP280;59921;51.332;12.410;2022-09-09T13:32:04;99771.94;;;23.68
55602;BMP280;59921;51.332;12.410;2022-09-09T13:34:34;99785.19;;;23.70
55602;BMP280;59921;51.332;12.410;2022-09-09T13:37:05;99781.69;;;23.69
55602;BMP280;59921;51.332;12.410;2022-09-09T13:39:33;99784.16;;;23.67
55602;BMP280;59921;51.332;12.410;2022-09-09T13:42:00;99773.16;;;23.67
55602;BMP280;59921;51.332;12.410;2022-09-09T13:44:34;99782.94;;;23.68
55602;BMP280;59921;51.332;12.410;2022-09-09T13:47:15;99773.94;;;23.67
55602;BMP280;59921;51.332;12.410;2022-09-09T13:49:44;99777.44;;;23.68
55602;BMP280;59921;51.332;12.410;2022-09-09T13:52:15;99779.44;;;23.67
55602;BMP280;59921;51.332;12.410;2022-09-09T13:54:42;99780.19;;;23.68
55602;BMP280;59921;51.332;12.410;2022-09-09T13:57:17;99788.44;;;23.68
55602;BMP280;59921;51.332;12.410;2022-09-09T13:59:44;99804.19;;;23.67
55602;BMP280;59921;51.332;12.410;2022-09-09T14:02:10;99821.47;;;23.68
55602;BMP280;59921;51.332;12.410;2022-09-09T14:04:36;99825.72;;;23.69
55602;BMP280;59921;51.332;12.410;2022-09-09T14:07:02;99841.47;;;23.69
55602;BMP280;59921;51.332;12.410;2022-09-09T14:09:28;99867.00;;;23.69
55602;BMP280;59921;51.332;12.410;2022-09-09T14:11:54;99833.97;;;23.69
55602;BMP280;59921;51.332;12.410;2022-09-09T14:14:20;99823.69;;;23.70
55602;BMP280;59921;51.332;12.410;2022-09-09T14:16:46;99810.69;;;23.70
55602;BMP280;59921;51.332;12.410;2022-09-09T14:19:12;99820.22;;;23.69
55602;BMP280;59921;51.332;12.410;2022-09-09T14:21:38;99815.44;;;23.70
55602;BMP280;59921;51.332;12.410;2022-09-09T14:24:04;99814.22;;;23.71
55602;BMP280;59921;51.332;12.410;2022-09-09T14:26:30;99802.44;;;23.70
55602;BMP280;59921;51.332;12.410;2022-09-09T14:28:56;99801.97;;;23.72
55602;BMP280;59921;51.332;12.410;2022-09-09T14:31:22;99801.22;;;23.71
55602;BMP280;59921;51.332;12.410;2022-09-09T14:33:48;99799.22;;;23.72
55602;BMP280;59921;51.332;12.410;2022-09-09T14:36:13;99789.44;;;23.71
55602;BMP280;59921;51.332;12.410;2022-09-09T14:38:40;99792.97;;;23.71
55602;BMP280;59921;51.332;12.410;2022-09-09T14:41:09;99788.69;;;23.70
55602;BMP280;59921;51.332;12.410;2022-09-09T14:43:37;99788.94;;;23.72
55602;BMP280;59921;51.332;12.410;2022-09-09T14:46:11;99783.44;;;23.72
55602;BMP280;59921;51.332;12.410;2022-09-09T14:48:37;99771.19;;;23.73
55602;BMP280;59921;51.332;12.410;2022-09-09T14:51:11;99767.44;;;23.71
55602;BMP280;59921;51.332;12.410;2022-09-09T14:53:38;99772.94;;;23.71
55602;BMP280;59921;51.332;12.410;2022-09-09T14:56:11;99773.69;;;23.71
55602;BMP280;59921;51.332;12.410;2022-09-09T14:58:37;99770.94;;;23.71
55602;BMP280;59921;51.332;12.410;2022-09-09T15:01:08;99774.44;;;23.72
55602;BMP280;59921;51.332;12.410;2022-09-09T15:03:38;99772.94;;;23.71
55602;BMP280;59921;51.332;12.410;2022-09-09T15:06:09;99780.69;;;23.72
55602;BMP280;59921;51.332;12.410;2022-09-09T15:08:40;99775.19;;;23.72
55602;BMP280;59921;51.332;12.410;2022-09-09T15:11:06;99791.69;;;23.72
55602;BMP280;59921;51.332;12.410;2022-09-09T15:13:33;99784.19;;;23.73
55602;BMP280;59921;51.332;12.410;2022-09-09T15:16:08;99788.94;;;23.72
55602;BMP280;59921;51.332;12.410;2022-09-09T15:18:34;99789.19;;;23.74
55602;BMP280;59921;51.332;12.410;2022-09-09T15:21:04;99789.69;;;23.73
55602;BMP280;59921;51.332;12.410;2022-09-09T15:23:34;99788.22;;;23.72
55602;BMP280;59921;51.332;12.410;2022-09-09T15:26:00;99795.72;;;23.71
55602;BMP280;59921;51.332;12.410;2022-09-09T15:28:26;99791.69;;;23.72
55602;BMP280;59921;51.332;12.410;2022-09-09T15:30:52;99791.69;;;23.72
55602;BMP280;59921;51.332;12.410;2022-09-09T15:33:20;99786.94;;;23.73
55602;BMP280;59921;51.332;12.410;2022-09-09T15:35:46;99786.94;;;23.73
55602;BMP280;59921;51.332;12.410;2022-09-09T15:38:12;99782.19;;;23.73
55602;BMP280;59921;51.332;12.410;2022-09-09T15:40:42;99782.19;;;23.73
55602;BMP280;59921;51.332;12.410;2022-09-09T15:43:07;99788.94;;;23.72
55602;BMP280;59921;51.332;12.410;2022-09-09T15:45:35;99781.44;;;23.73
55602;BMP280;59921;51.332;12.410;2022-09-09T15:48:01;99773.94;;;23.73
55602;BMP280;59921;51.332;12.410;2022-09-09T15:50:27;99786.44;;;23.74
55602;BMP280;59921;51.332;12.410;2022-09-09T15:52:56;99783.69;;;23.74
55602;BMP280;59921;51.332;12.410;2022-09-09T15:55:22;99780.16;;;23.74
55602;BMP280;59921;51.332;12.410;2022-09-09T15:57:50;99779.44;;;23.73
55602;BMP280;59921;51.332;12.410;2022-09-09T16:00:18;99782.19;;;23.73
55602;BMP280;59921;51.332;12.410;2022-09-09T16:02:45;99777.44;;;23.74
55602;BMP280;59921;51.332;12.410;2022-09-09T16:05:12;99787.69;;;23.73
55602;BMP280;59921;51.332;12.410;2022-09-09T16:07:37;99780.94;;;23.74
55602;BMP280;59921;51.332;12.410;2022-09-09T16:10:03;99782.94;;;23.74
55602;BMP280;59921;51.332;12.410;2022-09-09T16:12:28;99786.44;;;23.74
55602;BMP280;59921;51.332;12.410;2022-09-09T16:14:54;99780.94;;;23.74
55602;BMP280;59921;51.332;12.410;2022-09-09T16:17:20;99775.44;;;23.74
55602;BMP280;59921;51.332;12.410;2022-09-09T16:19:46;99777.44;;;23.74
55602;BMP280;59921;51.332;12.410;2022-09-09T16:22:12;99772.69;;;23.74
55602;BMP280;59921;51.332;12.410;2022-09-09T16:24:40;99769.69;;;23.72
55602;BMP280;59921;51.332;12.410;2022-09-09T16:27:06;99772.69;;;23.74